Onion Creek, California Weather observations

Data are for observation ending at time listed.
 Day   Time    Ave.   Ave.  Ave.  Vector   Max.   Stn.    Total    Solar   Ave.   Snow 
  of    of     Air    Rel.  Wind   Wind    Wind   Baro.  Precip.   Rad.    Soil   Depth
Year   Day     Temp.  Hum.  Speed  Dir.    Gust   Pres.                    Temp.       
2014   (PST)    F      %     mph   deg.    mph     mb.     in.     W/m2     F      in. 
---------------------------------------------------------------------------------------  
 273   10:40   58.7    52    3.2   270      9.6   830.3   34.81     780    999.0   999.0
 273   10:50   59.1    52    3.8   269      8.4   830.3   34.81     803    999.0   999.0
 273   11:00   59.3    50    3.6   258      8.8   830.3   34.81     808    999.0   999.0
 273   11:10   59.5    49    4.0   272     11.0   830.2   34.81     813    999.0   999.0
 273   11:20   60.1    48    2.7   250      8.6   830.2   34.81     828    999.0   999.0
 273   11:30   60.2    43    3.9   274     10.2   830.2   34.84     833    999.0   999.0
 273   11:40   60.4    42    3.1   257      8.5   830.1   34.81     847    999.0   999.0
 273   11:50   60.7    43    2.6   262      9.0   830.1   34.81     858    999.0   999.0
 273   12:00   61.2    42    2.8   263      6.9   830.1   34.81     865    999.0   999.0
 273   12:10   61.0    42    2.2   297      6.6   830.1   34.77     864    999.0   999.0
 273   12:20   61.1    40    3.0   270      6.4   830.0   34.77     861    999.0   999.0
 273   12:30   61.4    40    3.0   254      8.8   830.0   34.77     853    999.0   999.0
 273   12:40   61.9    41    2.3   233      6.6   829.8   34.81     843    999.0   999.0
 273   12:50   62.0    43    2.2   259      6.2   829.7   34.81     824    999.0   999.0
 273   13:00   62.0    42    2.6   276      6.9   829.7   34.81     815    999.0   999.0
 273   13:10   62.1    42    2.7   273      8.5   829.7   34.77     798    999.0   999.0
 273   13:20   61.4    41    4.1   260      9.8   829.5   34.77     783    999.0   999.0
 273   13:30   61.8    42    2.5   189      7.2   829.4   34.77     782    999.0   999.0
 273   13:40   62.2    40    2.8   257      8.6   829.4   34.77     767    999.0   999.0
 273   13:50   62.1    40    3.3   254      8.5   829.3   34.77     740    999.0   999.0
 273   14:00   62.5    40    2.5   256      9.1   829.3   34.81     685    999.0   999.0
 273   14:10   63.0    40    2.6   263      7.4   829.2   34.81     701    999.0   999.0
 273   14:20   62.4    40    3.1   260      9.6   829.1   34.77     662    999.0   999.0
 273   14:30   62.0    41    3.3   250      8.8   829.0   34.77     644    999.0   999.0
 273   14:40   61.9    40    3.4   255      7.8   829.1   34.77     574    999.0   999.0
 273   14:50   61.8    41    2.1   264      5.7   829.0   34.77     625    999.0   999.0
 273   15:00   62.6    42    2.0   251      4.7   829.0   34.77     595    999.0   999.0
 273   15:10   62.3    42    3.7   272      8.9   829.0   34.77     547    999.0   999.0
 273   15:20   61.9    44    3.0   236      9.6   829.0   34.74     512    999.0   999.0
 273   15:30   61.1    46    2.9   242      9.9   829.0   34.77     324    999.0   999.0
 273   15:40   60.5    48    3.3   278      9.3   829.0   34.77     278    999.0   999.0
 273   15:50   59.0    52    2.3   257      7.7   828.9   34.77     143    999.0   999.0
 273   16:00   59.6    51    3.1   269      8.3   828.8   34.77     371    999.0   999.0
 273   16:10   60.6    50    3.4   266      8.3   828.8   34.77     330    999.0   999.0
 273   16:20   59.9    52    1.5   258      4.9   828.9   34.77     164    999.0   999.0
 273   16:30   58.4    54    2.7   236      6.7   828.9   34.77      88    999.0   999.0
 273   16:40   57.8    56    1.3   181      4.4   828.9   34.77     103    999.0   999.0
 273   16:50   58.3    56    2.2   248      5.2   828.9   34.77      65    999.0   999.0
 273   17:00   57.8    57    2.6   257      6.7   828.9   34.77      34    999.0   999.0
 273   17:10   56.9    59    2.0   258      5.9   828.8   34.74      29    999.0   999.0
 273   17:20   55.7    64    1.0   252      5.9   828.8   34.74      16    999.0   999.0
 273   17:30   54.6    66    1.1   241      4.4   828.9   34.74      11    999.0   999.0
 273   17:40   53.4    72    0.4    28      1.8   829.0   34.77       7    999.0   999.0
 273   17:50   52.0    75    0.7    48      1.8   829.1   34.77       4    999.0   999.0
 273   18:00   51.2    78    0.4    57      1.9   829.1   34.77       1    999.0   999.0
 273   18:10   50.3    80    0.9    48      2.4   829.2   34.77       0    999.0   999.0
 273   18:20   49.6    83    0.6    62      2.0   829.2   34.74       0    999.0   999.0
 273   18:30   49.0    84    1.3   357      2.9   829.2   34.77       0    999.0   999.0
 273   18:40   48.5    85    1.3    42      2.5   829.4   34.77       0    999.0   999.0
 273   18:50   48.1    86    0.3    42      1.1   829.4   34.77       0    999.0   999.0
 273   19:00   47.7    87    0.7    42      1.7   829.4   34.77       0    999.0   999.0
 273   19:10   47.3    88    1.2    28      2.4   829.4   34.77       0    999.0   999.0
 273   19:20   47.3    88    1.5    57      2.3   829.4   34.74       0    999.0   999.0
 273   19:30   47.1    88    0.7    59      1.9   829.5   34.77       0    999.0   999.0
 273   19:40   46.8    90    1.4    56      2.3   829.6   34.77       0    999.0   999.0
 273   19:50   46.5    90    0.5    26      1.9   829.5   34.77       0    999.0   999.0
 273   20:00   45.9    90    1.3    29      4.3   829.4   34.77       0    999.0   999.0
 273   20:10   45.5    90    0.5    64      3.3   829.4   34.74       0    999.0   999.0
 273   20:20   45.1    89    0.6   219      2.7   829.3   34.77       0    999.0   999.0
 273   20:30   44.9    88    1.3   150      4.3   829.3   34.74       0    999.0   999.0
 273   20:40   46.5    72    1.7    89      6.1   829.3   34.77       0    999.0   999.0
 273   20:50   47.5    65    1.0   356      4.8   829.3   34.77       0    999.0   999.0
 273   21:00   46.9    67    1.6     8      5.8   829.3   34.81       0    999.0   999.0
 273   21:10   47.2    62    1.8     4      5.8   829.4   34.81       0    999.0   999.0
 273   21:20   48.3    58    2.1    23      7.1   829.4   34.77       0    999.0   999.0
 273   21:30   48.4    56    1.9    37      5.4   829.6   34.77       0    999.0   999.0
 273   21:40   48.5    54    1.9    31      7.9   829.7   34.77       0    999.0   999.0
 273   21:50   48.7    49    2.7    23     10.4   829.7   34.77       0    999.0   999.0
 273   22:00   48.8    46    2.8    22      9.7   829.8   34.77       0    999.0   999.0
 273   22:10   48.7    43    2.5    19      9.9   829.8   34.77       0    999.0   999.0
 273   22:20   48.5    42    2.0    10      8.2   829.8   34.77       0    999.0   999.0
 273   22:30   48.1    43    2.3     2      8.0   829.8   34.77       0    999.0   999.0
 273   22:40   47.5    45    2.3    11      6.9   829.8   34.81       0    999.0   999.0
 273   22:50   47.8    43    3.3     1     10.2   829.8   34.81       0    999.0   999.0
 273   23:00   47.4    45    2.1     2      7.1   829.8   34.77       0    999.0   999.0
 273   23:10   47.0    46    2.0   358      5.3   829.8   34.77       0    999.0   999.0
 273   23:20   46.9    46    1.9     6     12.3   829.8   34.81       0    999.0   999.0
 273   23:30   46.3    47    2.5     8      9.6   829.9   34.77       0    999.0   999.0
 273   23:40   46.5    46    1.7   329     10.3   829.8   34.77       0    999.0   999.0
 273   23:50   45.8    49    1.5     2      4.7   829.8   34.77       0    999.0   999.0
 274    0:00   45.6    50    1.5     7      6.6   829.8   34.77       0    999.0   999.0
 274    0:10   45.6    50    1.7   305      9.1   829.7   34.81       0    999.0   999.0
 274    0:20   45.4    51    2.0     1      7.6   829.8   34.81       0    999.0   999.0
 274    0:30   45.2    51    1.2     1      6.6   829.9   34.77       0    999.0   999.0
 274    0:40   45.1    50    2.2    13      8.6   829.9   34.77       0    999.0   999.0
 274    0:50   45.3    49    2.8    27     15.4   830.0   34.81       0    999.0   999.0
 274    1:00   45.2    49    3.0    10      8.4   830.1   34.81       0    999.0   999.0
 274    1:10   45.1    50    2.6    25      8.6   830.2   34.77       0    999.0   999.0
 274    1:20   44.8    51    1.9    44     10.2   830.2   34.81       0    999.0   999.0
 274    1:30   44.6    51    2.0    93      8.9   830.2   34.77       0    999.0   999.0
 274    1:40   44.5    52    2.9     5     12.9   830.1   34.81       0    999.0   999.0
 274    1:50   44.2    53    1.7     4      6.8   830.1   34.81       0    999.0   999.0
 274    2:00   44.1    53    1.9     5      5.8   830.0   34.81       0    999.0   999.0
 274    2:10   43.7    54    2.6   293      7.4   830.0   34.81       0    999.0   999.0
 274    2:20   43.6    54    1.8   205      4.6   830.0   34.77       0    999.0   999.0
 274    2:30   42.7    58    2.6   234      7.7   830.0   34.77       0    999.0   999.0
 274    2:40   40.8    66    2.5   175      5.6   830.0   34.77       0    999.0   999.0
 274    2:50   39.8    67    1.8   192      3.5   830.1   34.81       0    999.0   999.0
 274    3:00   39.8    67    1.2   175      4.7   830.2   34.81       0    999.0   999.0
 274    3:10   39.4    67    0.9   222      4.5   830.3   34.81       0    999.0   999.0
 274    3:20   39.6    66    1.9   192      3.9   830.4   34.81       0    999.0   999.0
 274    3:30   40.0    66    1.5   158      3.7   830.4   34.81       0    999.0   999.0
 274    3:40   38.8    70    2.0   170      5.2   830.2   34.81       0    999.0   999.0
 274    3:50   39.0    68    3.4   171      9.7   830.1   34.81       0    999.0   999.0
 274    4:00   38.3    72    1.9   171      4.0   830.1   34.77       0    999.0   999.0
 274    4:10   37.8    74    1.6   227      4.3   830.1   34.77       0    999.0   999.0
 274    4:20   37.5    74    2.6   195      6.7   830.1   34.81       0    999.0   999.0
 274    4:30   37.2    75    1.4   186      3.0   830.1   34.77       0    999.0   999.0
 274    4:40   37.1    75    2.5   194      4.6   830.0   34.81       0    999.0   999.0
 274    4:50   38.0    71    2.6   249      7.9   829.9   34.77       0    999.0   999.0
 274    5:00   37.7    72    1.2   188      4.6   829.9   34.81       0    999.0   999.0
 274    5:10   37.5    72    3.4   169      7.6   829.8   34.81       0    999.0   999.0
 274    5:20   37.3    74    2.0    30      8.1   829.8   34.81       0    999.0   999.0
 274    5:30   37.4    74    1.5   159      4.2   829.9   34.81       0    999.0   999.0
 274    5:40   37.3    74    2.2   149      5.6   830.0   34.81       0    999.0   999.0
 274    5:50   36.6    76    0.8   165      3.3   830.2   34.81       1    999.0   999.0
 274    6:00   35.7    80    1.5   156      5.4   830.3   34.77       2    999.0   999.0
 274    6:10   36.5    74    3.3   190      5.7   830.4   34.77       5    999.0   999.0
 274    6:20   37.7    70    2.9   181      5.5   830.5   34.81       7    999.0   999.0
 274    6:30   37.9    71    2.6   186      6.1   830.6   34.81       9    999.0   999.0
 274    6:40   37.7    72    3.2   196      6.2   830.7   34.81      11    999.0   999.0
 274    6:50   37.5    71    2.5   217      5.3   830.7   34.77      12    999.0   999.0
 274    7:00   37.9    70    2.8   201      5.7   830.7   34.77      13    999.0   999.0
 274    7:10   38.7    66    2.5   212      8.5   830.9   34.81      14    999.0   999.0
 274    7:20   38.9    68    2.6   197      5.6   831.0   34.81      15    999.0   999.0
 274    7:30   38.9    68    2.7   190      5.9   831.1   34.77      17    999.0   999.0
 274    7:40   40.2    64    2.5   189      5.8   831.2   34.81      19    999.0   999.0
 274    7:50   41.8    59    2.6   225      7.3   831.3   34.77      22    999.0   999.0
 274    8:00   41.6    61    1.4   192      5.4   831.4   34.77     186    999.0   999.0
 274    8:10   44.0    54    3.4   240      7.9   831.5   34.81     432    999.0   999.0
 274    8:20   45.5    53    2.1   304      7.4   831.7   34.77     469    999.0   999.0
 274    8:30   46.4    51    2.6   336      7.0   831.9   34.77     504    999.0   999.0
 274    8:40   47.3    47    2.7   280      6.4   832.1   34.81     533    999.0   999.0
 274    8:50   48.0    49    1.4   262      3.9   832.0   34.81     565    999.0   999.0
 274    9:00   48.9    46    3.1   265      7.8   832.1   34.81     597    999.0   999.0
 274    9:10   49.5    44    1.9   267      5.5   832.3   34.77     624    999.0   999.0
 274    9:20   50.5    44    2.6   264      6.1   832.2   34.81     650    999.0   999.0
 274    9:30   51.5    44    2.1   279      4.4   832.0   34.77     670    999.0   999.0
 274    9:40   52.3    42    2.5   258     13.4   832.1   34.77     688    999.0   999.0
 274    9:50   52.1    40    2.9   330     18.6   832.1   34.81     709    999.0   999.0
 274   10:00   52.8    40    2.9   257      6.8   832.0   34.81     730    999.0   999.0
 274   10:10   53.3    39    3.6   275     10.5   832.1   34.81     750    999.0   999.0
 274   10:20   54.5    37    2.5   290      8.6   832.0   34.77     769    999.0   999.0
 274   10:30   54.8    36    3.2   278      7.3   831.9   34.77     787    999.0   999.0

Return to Onion Creek graphs page.


Western Regional Climate Center,wrcc@dri.edu